INDIA METEOROLOGICAL DEPARTMENT, R.M.C. NEW DELHI
Dated:30 - 5 - 2016
METARS


Ahmedabad  
VAAH 301800Z 25006KT 4000 FU FEW025 33/23 Q1005 NOSIG=
Amritsar   
VIAR 301800Z 00000KT 3000 BR FEW040 SCT100 26/23 Q1004 NOSIG=
Bangalore  
VOBL 301800Z NIL=
Bhopal     
VABP 301630Z 11004KT 6000 FEW100 32/19 Q1006 NOSIG=
Bhubaneswar
VEBS 301800Z 18006KT 3000 HZ SCT018 SCT100 29/25 Q1003 NOSIG =
Chennai    
VOMM 301800Z 18008KT 6000 FEW020 SCT100 31/27 Q1004 NOSIG=
Coimbatore 
VOCB 301800Z 20008KT 6000 FEW015 FEW020CB SCT080 26/24 Q1011 NOSIG=
Colombo    
VCBI 301740Z 24010KT 9999 FEW016 FEW018CB 29/25 Q1010 NOSIG RMK S/SE=
Delhi      
VIDP 301800Z 00000KT 1700 R28/P2000 R29/P2000 HZ FEW100 26/20 Q1004 NOSIG =
Gauhati    
VEGT 301800Z NIL=
Gaya       
VEGY 301800Z NIL=
Hyderabad  
VOHS 301800Z 17004KT 6000 SCT015 SCT100 30/17 Q1008 NOSIG=
Jaipur     
VIJP 301800Z 09010KT 2500 HZ FEW035 30/19 Q1005 NOSIG=
Kochi      
VOCI 301800Z 10006KT 2500 RA SCT008 SCT012 FEW025CB OVC080 25/24 Q1010 NOSIG=
Kolkata    
VECC 301800Z 18004KT 3200 HZ SCT020 BKN100 27/25 Q1003 NOSIG=
Kozhikode  
VOCL 301800Z 04004KT 3000 -TSRA SCT008 SCT012 FEW025CB BKN080 25/24 Q1010 BECMG 5000 -RA=
Lucknow    
VILK 301730Z 00000KT 3500 HZ NSC 30/24 Q1002=
Madurai    
VOMD 301800Z 34004KT 4000 HZ FEW020 SCT100 27/23 Q1008 NOSIG=
Mumbai     
VABB 301800Z 23007KT 4000 HZ SCT020 31/26 Q1008 NOSIG=
Nagpur     
VANP 301800Z 02008KT 5000 HZ FEW020 FEW030CB SCT100 33/18 Q1005 NOSIG=
Patna      
VEPT 301800Z NIL=
Trichy     
VOTR 301800Z 28009KT 5000 BR SCT016 OVC080 28/24 Q1007 NOSIG=
Trivandrum 
VOTV 301800Z 27003KT 4000 HZ SCT015 FEW025CB BKN080 27/25 Q1009 NOSIG=
Varanasi   
VEBN 301730Z 00000KT 4000 HZ NSC 29/22 Q1003=
Vizag      
VOVZ 301800Z 29004KT 6000 FEW018 BKN090 30/26 Q1003 NOSIG =
Male       
VRMM 301800Z 25011KT 9999 FEW018 BKN280 30/26 Q1011 NOSIG=
Gan        
VRMG 301800Z 28006KT 9999 FEW018TCU 28/24 Q1012=
Kathmandu   
VNKT 301800Z NIL=
Dhaka      
VGHS 301800Z 17006KT 4000 HZ BKN010 OVC100 28/25 Q1003 TEMPO RA=
Colombo     
VCBI 301740Z 24010KT 9999 FEW016 FEW018CB 29/25 Q1010 NOSIG RMK S/SE=
Karachi     
OPKC 301755Z 27010KT 6000 SCT020 29/24 Q1003 NOSIG=
Lahore      
OPLA 301759Z 13005KT 5000 FU FEW100 27/19 Q1004 NOSIG=
Gwalior    
VIGR 301800Z 00000KT 3000 HZ NSC 28/21 Q1004=
Pune       
VAPO 301630Z 27011KT 6000 FEW030 27/22 Q1012 NOSIG=